Ashby, Massachusetts
Current Conditions -  °F | °C
As of 7:52 PM on Tuesday 21 Oct 2014 (Local Time) from KFIT Reporting Station
Overcast Overcast  
Wind Chill: 56°   Ceiling: 900
Heat Index: 56°   Visibility: 10mi
Dew Point: 51°   Wind: 8mph
Humidity: 84%   Direction: 360°N
Pressure: 29.97"   Gusts: NA
Location:  42.68°N, 71.82°W
Report Text: KFIT 212352Z AUTO 36007KT 10SM OVC009 13/11 A2997 RMK AO2 SLP149 T01330106 10167 20133 53011
Loading
Personal Weather Stations






























Interactive Weather Map New forecast layout! Learn more

10-Day Weather Forecast

Advertisements
Track Severe Weather on mobile